Time;durP1;ratioP1;P1;durP2;ratioP2;P2;SDS_P1;SDS_P2;PMS_P1;PMS_P2;Temp;Humidity;BMP_temperature;BMP_pressure;BME280_temperature;BME280_humidity;BME280_pressure;Samples;Min_cycle;Max_cycle;Signal;HPM_P1;HPM_P2
2021/11/08 00:01:36;;;;;;;18.73;13.67;;;5.80;99.90;;;;;;5033103;28;20548;-81
2021/11/08 00:04:03;;;;;;;17.10;12.73;;;5.80;99.90;;;;;;5032583;28;20028;-81
2021/11/08 00:06:28;;;;;;;18.53;12.53;;;5.80;99.90;;;;;;5032551;28;20055;-80
2021/11/08 00:08:54;;;;;;;18.73;13.33;;;5.80;99.90;;;;;;5032781;28;20477;-80
2021/11/08 00:11:20;;;;;;;18.67;13.23;;;5.80;99.90;;;;;;5032614;28;20017;-80
2021/11/08 00:13:46;;;;;;;21.03;13.83;;;5.80;99.90;;;;;;5032649;28;20072;-80
2021/11/08 00:16:31;;;;;;;20.23;13.73;;;5.80;99.90;;;;;;5032376;28;20026;-80
2021/11/08 00:21:46;;;;;;;18.17;12.77;;;5.80;99.90;;;;;;5032510;28;20092;-79
2021/11/08 00:24:14;;;;;;;16.93;13.30;;;5.80;99.90;;;;;;5032656;28;20814;-80
2021/11/08 00:26:40;;;;;;;20.00;13.07;;;5.80;99.90;;;;;;5031098;28;20037;-80
2021/11/08 00:29:05;;;;;;;18.60;13.30;;;5.80;99.90;;;;;;5032341;28;20678;-79
2021/11/08 00:31:31;;;;;;;17.67;13.00;;;5.80;99.90;;;;;;5032340;28;20037;-79
2021/11/08 00:33:58;;;;;;;18.97;13.87;;;5.80;99.90;;;;;;5032147;28;20421;-80
2021/11/08 00:36:23;;;;;;;19.03;13.47;;;5.80;99.90;;;;;;5032155;28;20051;-80
2021/11/08 00:38:50;;;;;;;17.20;12.33;;;5.80;99.90;;;;;;5031969;28;20483;-80
2021/11/08 00:41:16;;;;;;;20.93;13.37;;;5.80;99.90;;;;;;5032083;28;20033;-80
2021/11/08 00:43:42;;;;;;;19.20;13.47;;;5.90;99.90;;;;;;5031856;28;20044;-79
2021/11/08 00:46:08;;;;;;;17.70;12.83;;;5.90;99.90;;;;;;5033297;28;20033;-75
2021/11/08 00:48:36;;;;;;;17.10;13.23;;;5.80;99.90;;;;;;5034053;28;20048;-75
2021/11/08 00:51:03;;;;;;;20.30;14.40;;;5.80;99.90;;;;;;5034218;28;20030;-75
2021/11/08 00:53:29;;;;;;;22.03;13.43;;;5.90;99.90;;;;;;5034039;28;20033;-75
2021/11/08 00:55:56;;;;;;;22.33;14.23;;;5.80;99.90;;;;;;5034245;28;20040;-75
2021/11/08 00:58:28;;;;;;;23.20;15.00;;;5.80;99.90;;;;;;5034102;28;20060;-75
2021/11/08 01:00:54;;;;;;;19.37;13.50;;;5.80;99.90;;;;;;5033876;28;20418;-76
2021/11/08 01:03:22;;;;;;;18.87;13.93;;;5.80;99.90;;;;;;5033955;28;20029;-75
2021/11/08 01:05:48;;;;;;;22.43;15.47;;;5.80;99.90;;;;;;5033996;28;20022;-75
2021/11/08 01:08:15;;;;;;;21.23;14.23;;;5.80;99.90;;;;;;5033880;28;20021;-75
2021/11/08 01:10:41;;;;;;;20.67;14.60;;;5.80;99.90;;;;;;5033696;28;20036;-76
2021/11/08 01:13:07;;;;;;;20.93;14.97;;;5.80;99.90;;;;;;5034094;28;20109;-75
2021/11/08 01:15:32;;;;;;;20.97;14.13;;;5.80;99.90;;;;;;5032107;28;20025;-76
2021/11/08 01:17:58;;;;;;;21.20;14.73;;;5.80;99.90;;;;;;5032547;28;20116;-75
2021/11/08 01:20:31;;;;;;;22.30;15.03;;;5.80;99.90;;;;;;5033614;28;20469;-75
2021/11/08 01:22:57;;;;;;;21.67;15.77;;;5.80;99.90;;;;;;5033035;28;20032;-75
2021/11/08 01:25:22;;;;;;;22.40;15.17;;;5.80;99.90;;;;;;5033524;28;20026;-75
2021/11/08 01:27:52;;;;;;;21.40;15.00;;;5.80;99.90;;;;;;5033543;28;20119;-75
2021/11/08 01:30:20;;;;;;;22.87;15.40;;;5.80;99.90;;;;;;5032006;28;20066;-75
2021/11/08 01:35:33;;;;;;;21.27;16.00;;;5.80;99.90;;;;;;5033409;28;20028;-75
2021/11/08 01:38:06;;;;;;;21.23;15.07;;;5.80;99.90;;;;;;5033449;28;20026;-75
2021/11/08 01:40:33;;;;;;;22.37;15.43;;;5.80;99.90;;;;;;5032970;28;20131;-79
2021/11/08 01:42:59;;;;;;;24.77;15.90;;;5.80;99.90;;;;;;5031111;28;20018;-79
2021/11/08 01:45:24;;;;;;;22.53;15.47;;;5.80;99.90;;;;;;5031040;28;20064;-80
2021/11/08 01:47:51;;;;;;;22.13;16.17;;;5.80;99.90;;;;;;5029543;28;20106;-80
2021/11/08 01:50:17;;;;;;;21.67;15.90;;;5.80;99.90;;;;;;5030707;28;20017;-80
2021/11/08 01:52:43;;;;;;;21.70;14.97;;;5.80;99.90;;;;;;5030694;28;20032;-80
2021/11/08 01:55:09;;;;;;;22.17;15.77;;;5.80;99.90;;;;;;5030655;28;20030;-80
2021/11/08 01:57:37;;;;;;;23.63;15.73;;;5.80;99.90;;;;;;5030532;28;20036;-80
2021/11/08 02:00:07;;;;;;;20.47;14.70;;;5.80;99.90;;;;;;5030687;28;20101;-80
2021/11/08 02:02:35;;;;;;;21.43;15.13;;;5.70;99.90;;;;;;5030803;28;20036;-80
2021/11/08 02:05:01;;;;;;;24.07;16.40;;;5.70;99.90;;;;;;5030720;28;20865;-80
2021/11/08 02:07:27;;;;;;;24.67;16.87;;;5.70;99.90;;;;;;5030658;28;20057;-80
2021/11/08 02:09:53;;;;;;;22.60;15.37;;;5.70;99.90;;;;;;5030717;28;20123;-80
2021/11/08 02:12:19;;;;;;;21.63;15.50;;;5.70;99.90;;;;;;5030618;28;20025;-80
2021/11/08 02:14:44;;;;;;;22.87;16.23;;;5.70;99.90;;;;;;5029058;28;20032;-80
2021/11/08 02:17:10;;;;;;;21.40;15.93;;;5.70;99.90;;;;;;5029115;28;20052;-80
2021/11/08 02:19:36;;;;;;;25.10;16.10;;;5.70;99.90;;;;;;5030292;28;20029;-80
2021/11/08 02:22:04;;;;;;;22.30;16.30;;;5.70;99.90;;;;;;5030122;28;20041;-80
2021/11/08 02:24:30;;;;;;;22.40;15.93;;;5.70;99.90;;;;;;5030315;28;20447;-80
2021/11/08 02:26:56;;;;;;;24.13;15.97;;;5.60;99.90;;;;;;5028750;28;20435;-80
2021/11/08 02:29:22;;;;;;;21.93;16.47;;;5.60;99.90;;;;;;5029286;28;20013;-80
2021/11/08 02:31:50;;;;;;;26.10;16.50;;;5.60;99.90;;;;;;5028780;28;20079;-80
2021/11/08 02:34:17;;;;;;;23.37;16.10;;;5.60;99.90;;;;;;5030095;28;20096;-80
2021/11/08 02:36:43;;;;;;;24.33;16.30;;;5.60;99.90;;;;;;5030105;28;20083;-80
2021/11/08 02:39:19;;;;;;;21.80;15.30;;;5.60;99.90;;;;;;5029822;28;20053;-80
2021/11/08 02:41:44;;;;;;;22.80;16.37;;;5.60;99.90;;;;;;5030197;28;20079;-80
2021/11/08 02:44:10;;;;;;;25.40;16.03;;;5.60;99.90;;;;;;5029962;28;20538;-80
2021/11/08 02:46:41;;;;;;;21.83;15.43;;;5.60;99.90;;;;;;5028795;28;20378;-80
2021/11/08 02:49:09;;;;;;;24.27;16.20;;;5.60;99.90;;;;;;5030114;28;20028;-80
2021/11/08 02:51:36;;;;;;;22.73;15.90;;;5.50;99.90;;;;;;5028704;28;20029;-80
2021/11/08 02:54:09;;;;;;;24.17;15.53;;;5.50;99.90;;;;;;5028613;28;20041;-80
2021/11/08 02:56:35;;;;;;;23.13;15.90;;;5.50;99.90;;;;;;5028706;28;20032;-77
2021/11/08 02:59:01;;;;;;;22.00;14.90;;;5.50;99.90;;;;;;5028978;28;20083;-77
2021/11/08 03:01:28;;;;;;;24.03;16.13;;;5.50;99.90;;;;;;5029989;28;20036;-77
2021/11/08 03:03:56;;;;;;;22.23;14.83;;;5.40;99.90;;;;;;5029987;28;20033;-76
2021/11/08 03:08:50;;;;;;;24.10;15.47;;;5.40;99.90;;;;;;5029862;28;20033;-77
2021/11/08 03:11:16;;;;;;;22.53;14.67;;;5.40;99.90;;;;;;5028527;28;20066;-77
2021/11/08 03:13:51;;;;;;;20.13;14.50;;;5.50;99.90;;;;;;5029970;28;20482;-76
2021/11/08 03:16:24;;;;;;;19.30;14.90;;;5.40;99.90;;;;;;5030010;28;20481;-76
2021/11/08 03:18:55;;;;;;;25.17;16.23;;;5.40;99.90;;;;;;5028723;28;20493;-76
2021/11/08 03:21:23;;;;;;;22.73;16.40;;;5.50;99.90;;;;;;5028313;28;20493;-77
2021/11/08 03:23:51;;;;;;;19.40;14.47;;;5.50;99.90;;;;;;5029832;28;20378;-77
2021/11/08 03:28:58;;;;;;;23.37;15.97;;;5.50;99.90;;;;;;5029935;28;20080;-77
2021/11/08 03:31:26;;;;;;;25.77;16.30;;;5.50;99.90;;;;;;5030118;28;20382;-76
2021/11/08 03:33:52;;;;;;;22.67;15.13;;;5.50;99.90;;;;;;5029936;28;20037;-77
2021/11/08 03:36:18;;;;;;;22.20;15.13;;;5.50;99.90;;;;;;5029490;28;20032;-77
2021/11/08 03:38:43;;;;;;;22.70;14.90;;;5.50;99.90;;;;;;5029621;28;20057;-77
2021/11/08 03:41:09;;;;;;;23.33;15.83;;;5.50;99.90;;;;;;5033324;28;20360;-77
2021/11/08 03:43:36;;;;;;;23.87;15.60;;;5.50;99.90;;;;;;5033303;28;20069;-77
2021/11/08 03:46:02;;;;;;;21.23;14.37;;;5.50;99.90;;;;;;5033175;28;20049;-77
2021/11/08 03:48:28;;;;;;;20.30;14.50;;;5.50;99.90;;;;;;5033264;28;20033;-77
2021/11/08 03:50:54;;;;;;;22.47;14.80;;;5.50;99.90;;;;;;5033220;28;20033;-77
2021/11/08 03:53:20;;;;;;;22.40;15.37;;;5.50;99.90;;;;;;5033270;28;20060;-77
2021/11/08 03:55:47;;;;;;;21.47;14.03;;;5.50;99.90;;;;;;5033063;28;20064;-77
2021/11/08 03:58:14;;;;;;;25.90;14.97;;;5.50;99.90;;;;;;5031888;28;20033;-77
2021/11/08 04:00:41;;;;;;;21.90;14.73;;;5.40;99.90;;;;;;5033043;28;20029;-77
2021/11/08 04:03:08;;;;;;;23.13;15.13;;;5.40;99.90;;;;;;5032935;28;20026;-77
2021/11/08 04:05:36;;;;;;;22.27;14.03;;;5.40;99.90;;;;;;5032764;28;20072;-77
2021/11/08 04:08:08;;;;;;;21.27;13.90;;;5.40;99.90;;;;;;5032909;28;20037;-77
2021/11/08 04:10:36;;;;;;;22.40;15.07;;;5.40;99.90;;;;;;5032865;28;20524;-77
2021/11/08 04:13:05;;;;;;;19.57;13.40;;;5.40;99.90;;;;;;5031591;28;20036;-77
2021/11/08 04:15:36;;;;;;;21.43;14.00;;;5.40;99.90;;;;;;5032522;28;20483;-77
2021/11/08 04:18:09;;;;;;;20.07;14.07;;;5.40;99.90;;;;;;5031559;28;20041;-77
2021/11/08 04:20:39;;;;;;;20.37;14.03;;;5.30;99.90;;;;;;5032862;28;20029;-77
2021/11/08 04:23:05;;;;;;;21.80;14.37;;;5.30;99.90;;;;;;5032941;28;20151;-77
2021/11/08 04:25:31;;;;;;;20.77;14.60;;;5.30;99.90;;;;;;5032577;28;20438;-77
2021/11/08 04:27:57;;;;;;;21.20;14.30;;;5.30;99.90;;;;;;5032361;28;20040;-77
2021/11/08 04:30:26;;;;;;;24.70;14.43;;;5.20;99.90;;;;;;5032410;28;20028;-76
2021/11/08 04:33:12;;;;;;;19.63;13.67;;;5.20;99.90;;;;;;5032237;28;20447;-76
2021/11/08 04:38:14;;;;;;;21.50;13.70;;;5.20;99.90;;;;;;5032466;28;20033;-77
2021/11/08 05:31:53;;;;;;;19.57;13.00;;;4.10;99.90;;;;;;5018759;28;20021;-81
2021/11/08 05:34:19;;;;;;;19.90;13.05;;;4.10;99.90;;;;;;5017959;28;20025;-80
2021/11/08 05:36:45;;;;;;;17.63;12.73;;;4.00;99.90;;;;;;5021741;28;20022;-81
2021/11/08 05:39:11;;;;;;;22.43;13.97;;;4.10;99.90;;;;;;5022002;28;20053;-80
2021/11/08 05:41:39;;;;;;;28.80;15.80;;;4.10;99.90;;;;;;5021012;28;20029;-80
2021/11/08 05:44:06;;;;;;;25.17;15.77;;;4.10;99.90;;;;;;5021728;28;20057;-80
2021/11/08 05:46:32;;;;;;;22.67;14.67;;;4.10;99.90;;;;;;5022077;28;20022;-80
2021/11/08 05:48:58;;;;;;;22.63;15.10;;;4.20;99.90;;;;;;5022094;28;20027;-80
2021/11/08 05:51:24;;;;;;;21.93;14.43;;;4.20;99.90;;;;;;5021504;28;20108;-80
2021/11/08 05:53:50;;;;;;;22.73;15.23;;;4.30;99.90;;;;;;5021917;28;20025;-80
2021/11/08 05:59:43;;;;;;;24.30;14.53;;;4.30;99.90;;;;;;4963105;28;20072;-80
2021/11/08 06:51:51;;;;;;;17.13;12.20;;;4.20;99.90;;;;;;5014649;28;20103;-76
2021/11/08 06:54:22;;;;;;;25.90;12.57;;;4.10;99.90;;;;;;5007172;28;20044;-76
2021/11/08 06:56:54;;;;;;;19.73;12.60;;;4.10;99.90;;;;;;5009772;28;20029;-75
2021/11/08 06:59:24;;;;;;;19.87;12.93;;;4.00;99.90;;;;;;5031835;28;20057;-75
2021/11/08 07:01:51;;;;;;;21.33;12.70;;;4.00;99.90;;;;;;5027827;28;20116;-72
2021/11/08 07:04:17;;;;;;;23.70;12.93;;;4.00;99.90;;;;;;5027878;28;20048;-73
2021/11/08 07:06:44;;;;;;;17.43;12.33;;;4.00;99.90;;;;;;5026142;28;20686;-70
2021/11/08 07:09:10;;;;;;;18.67;12.33;;;4.00;99.90;;;;;;5026033;28;20041;-70
2021/11/08 07:11:35;;;;;;;20.07;11.70;;;4.00;99.90;;;;;;5027265;28;20041;-77
2021/11/08 07:14:01;;;;;;;15.77;11.77;;;4.00;99.90;;;;;;5027879;28;20038;-77
2021/11/08 07:16:27;;;;;;;23.63;12.00;;;3.90;99.90;;;;;;5030663;28;20037;-81
2021/11/08 07:18:52;;;;;;;22.67;11.27;;;3.90;99.90;;;;;;5030957;28;20028;-76
2021/11/08 07:21:18;;;;;;;16.87;11.07;;;3.90;99.90;;;;;;5033455;28;20105;-77
2021/11/08 07:23:43;;;;;;;23.90;12.33;;;4.00;99.90;;;;;;5032452;28;20412;-76
2021/11/08 07:26:11;;;;;;;17.90;11.77;;;4.00;99.90;;;;;;5031170;28;20021;-75
2021/11/08 07:28:38;;;;;;;20.07;12.30;;;4.00;99.90;;;;;;5030700;28;20112;-76
2021/11/08 07:31:04;;;;;;;19.67;11.43;;;4.10;99.90;;;;;;5034159;28;20022;-76
2021/11/08 07:33:33;;;;;;;27.50;13.13;;;4.10;99.90;;;;;;5033036;28;20030;-75
2021/11/08 07:35:59;;;;;;;26.60;13.43;;;4.10;99.90;;;;;;5034442;28;20037;-75
2021/11/08 07:38:24;;;;;;;29.50;14.73;;;4.20;99.90;;;;;;5034539;28;20389;-75
2021/11/08 07:40:50;;;;;;;24.57;13.03;;;4.30;99.90;;;;;;5030309;28;20032;-75
2021/11/08 07:43:16;;;;;;;23.57;12.27;;;4.30;99.90;;;;;;5032855;28;20021;-75
2021/11/08 07:45:41;;;;;;;23.17;13.40;;;4.40;99.90;;;;;;5030965;28;20124;-75
2021/11/08 07:48:07;;;;;;;20.23;13.13;;;4.50;99.90;;;;;;5031822;28;20108;-76
2021/11/08 07:50:34;;;;;;;24.87;13.30;;;4.50;99.90;;;;;;5034484;28;20017;-75
2021/11/08 07:52:59;;;;;;;17.53;11.40;;;4.60;99.90;;;;;;5034070;28;20397;-76
2021/11/08 07:55:25;;;;;;;22.47;11.60;;;4.70;99.90;;;;;;5033849;28;20060;-75
2021/11/08 07:57:51;;;;;;;25.07;12.43;;;4.80;99.90;;;;;;5033749;28;20087;-76
2021/11/08 08:00:17;;;;;;;20.10;10.60;;;4.80;99.90;;;;;;5029013;28;20029;-80
2021/11/08 08:02:43;;;;;;;22.37;10.90;;;4.90;99.90;;;;;;5028003;28;20120;-80
2021/11/08 08:05:09;;;;;;;24.37;11.13;;;5.00;99.90;;;;;;5027709;28;20041;-80
2021/11/08 08:07:34;;;;;;;25.23;9.53;;;5.00;99.90;;;;;;5029058;28;20034;-80
2021/11/08 08:10:00;;;;;;;21.97;10.37;;;5.10;99.90;;;;;;5027716;28;20025;-80
2021/11/08 08:12:25;;;;;;;18.57;9.13;;;5.20;99.90;;;;;;5026296;28;20025;-80
2021/11/08 08:14:51;;;;;;;18.23;8.57;;;5.30;99.90;;;;;;5027094;28;20830;-80
2021/11/08 08:17:17;;;;;;;17.50;8.77;;;5.50;99.90;;;;;;5027377;28;20036;-80
2021/11/08 08:19:42;;;;;;;16.63;8.60;;;5.60;99.90;;;;;;5027327;28;20079;-80
2021/11/08 08:22:08;;;;;;;19.07;7.60;;;5.80;99.90;;;;;;5027708;28;20104;-80
2021/11/08 08:24:35;;;;;;;17.97;8.23;;;5.90;99.90;;;;;;5023734;28;20053;-80
2021/11/08 08:27:04;;;;;;;20.47;8.80;;;6.10;99.90;;;;;;5026266;28;20277;-76
2021/11/08 08:29:33;;;;;;;15.27;6.83;;;6.40;99.90;;;;;;5026425;28;20211;-76
2021/11/08 08:31:59;;;;;;;31.43;12.73;;;6.60;99.90;;;;;;5027536;28;20036;-75
2021/11/08 08:34:25;;;;;;;14.97;6.63;;;6.80;99.90;;;;;;5033232;28;20037;-81
2021/11/08 08:36:53;;;;;;;17.20;6.60;;;6.90;99.90;;;;;;5024631;28;20088;-80
2021/11/08 08:39:20;;;;;;;13.67;5.67;;;7.10;99.90;;;;;;5017985;28;20049;-80
2021/11/08 08:41:47;;;;;;;13.17;5.27;;;7.20;99.90;;;;;;5020001;28;20108;-76
2021/11/08 08:44:13;;;;;;;14.73;5.43;;;7.30;99.90;;;;;;5009616;28;20061;-76
2021/11/08 08:46:44;;;;;;;17.07;5.83;;;7.30;99.90;;;;;;5026698;28;20042;-76
2021/11/08 08:49:11;;;;;;;20.13;5.93;;;7.20;99.90;;;;;;5028935;28;20120;-76
2021/11/08 08:51:37;;;;;;;11.77;5.37;;;7.20;99.90;;;;;;5029042;28;20453;-77
2021/11/08 08:54:04;;;;;;;19.93;6.77;;;7.10;99.90;;;;;;5029132;28;20030;-77
2021/11/08 08:56:30;;;;;;;17.30;6.90;;;7.10;99.90;;;;;;5029043;28;20029;-77
2021/11/08 08:58:56;;;;;;;21.57;9.97;;;7.10;99.90;;;;;;5029502;28;20041;-76
2021/11/08 09:01:23;;;;;;;20.33;8.03;;;7.00;99.90;;;;;;5033560;28;20044;-76
2021/11/08 09:03:49;;;;;;;19.40;6.57;;;6.90;99.90;;;;;;5033684;28;20116;-76
2021/11/08 09:06:15;;;;;;;33.77;15.97;;;6.90;99.90;;;;;;5032683;28;20029;-76
2021/11/08 09:08:41;;;;;;;24.77;9.67;;;6.80;99.90;;;;;;5033952;28;20033;-75
2021/11/08 09:11:07;;;;;;;27.07;8.80;;;6.70;99.90;;;;;;5033652;28;20037;-75
2021/11/08 09:13:34;;;;;;;19.73;6.97;;;6.50;99.90;;;;;;5030511;28;20033;-80
2021/11/08 09:16:00;;;;;;;22.30;7.73;;;6.40;99.90;;;;;;5028218;28;20116;-80
2021/11/08 09:18:26;;;;;;;25.70;7.70;;;6.30;99.90;;;;;;5028167;28;20037;-80
2021/11/08 09:20:51;;;;;;;20.80;5.30;;;6.30;99.90;;;;;;5031275;28;20627;-75
2021/11/08 09:23:17;;;;;;;22.17;7.73;;;6.20;99.90;;;;;;5032489;28;20073;-76
2021/11/08 09:25:43;;;;;;;27.10;10.73;;;6.20;99.90;;;;;;5031681;28;20095;-76
2021/11/08 09:28:09;;;;;;;26.57;6.97;;;6.20;99.90;;;;;;5032757;28;20033;-76
2021/11/08 09:30:42;;;;;;;33.40;14.27;;;6.30;99.90;;;;;;5032678;28;20025;-76
2021/11/08 09:33:09;;;;;;;25.20;6.73;;;6.40;99.90;;;;;;5032518;28;20017;-76
2021/11/08 09:35:43;;;;;;;16.33;5.73;;;6.50;99.90;;;;;;5032468;28;20030;-76
2021/11/08 09:38:09;;;;;;;21.07;7.43;;;6.70;99.90;;;;;;5031681;28;20080;-76
2021/11/08 09:40:37;;;;;;;21.90;6.57;;;7.00;99.90;;;;;;5031481;28;20049;-76
2021/11/08 09:43:07;;;;;;;14.63;4.80;;;7.30;99.90;;;;;;5030447;28;20037;-75
2021/11/08 09:45:33;;;;;;;26.90;9.20;;;7.50;99.90;;;;;;5033421;28;20037;-75
2021/11/08 09:47:59;;;;;;;29.00;14.37;;;7.80;99.90;;;;;;5033071;28;20025;-75
2021/11/08 09:50:29;;;;;;;15.93;5.33;;;8.00;99.90;;;;;;5032739;28;20032;-76
2021/11/08 09:52:56;;;;;;;56.27;37.50;;;8.10;99.90;;;;;;5032878;28;20473;-75
2021/11/08 09:55:23;;;;;;;16.03;6.43;;;8.30;99.90;;;;;;5032404;28;20501;-75
2021/11/08 09:57:50;;;;;;;16.30;4.63;;;8.50;99.90;;;;;;5032940;28;20037;-75
2021/11/08 10:00:27;;;;;;;16.03;4.77;;;8.60;99.90;;;;;;5032794;28;20026;-75
2021/11/08 10:02:59;;;;;;;12.17;4.00;;;8.70;99.90;;;;;;5031317;28;20025;-76
2021/11/08 10:05:28;;;;;;;17.67;7.10;;;8.80;99.90;;;;;;5029221;28;20033;-76
2021/11/08 10:07:56;;;;;;;16.63;4.13;;;9.00;99.90;;;;;;5030360;28;20480;-76
2021/11/08 10:10:22;;;;;;;14.73;4.33;;;9.10;99.90;;;;;;5032067;28;20053;-76
2021/11/08 10:12:52;;;;;;;12.60;3.93;;;9.10;99.90;;;;;;5031881;28;20029;-76
2021/11/08 10:15:19;;;;;;;18.40;4.87;;;9.30;99.90;;;;;;5030922;28;20057;-76
2021/11/08 10:17:46;;;;;;;15.80;4.10;;;9.50;99.90;;;;;;5031666;28;20100;-76
2021/11/08 10:20:37;;;;;;;19.53;9.17;;;9.70;99.90;;;;;;5029865;28;20040;-76
2021/11/08 10:23:04;;;;;;;18.13;6.50;;;9.70;99.90;;;;;;5007320;28;20401;-80
2021/11/08 10:25:33;;;;;;;15.17;4.17;;;9.80;99.90;;;;;;5010253;28;20168;-79
2021/11/08 10:27:59;;;;;;;21.33;7.83;;;9.80;99.90;;;;;;5009810;28;20042;-76
2021/11/08 10:30:32;;;;;;;18.07;6.13;;;10.00;99.90;;;;;;5012027;28;20032;-75
2021/11/08 10:33:18;;;;;;;22.83;6.73;;;9.90;99.90;;;;;;5029930;28;20025;-75
2021/11/08 10:35:53;;;;;;;12.30;4.90;;;9.90;99.90;;;;;;5031545;28;20179;-75
2021/11/08 10:38:25;;;;;;;22.27;9.75;;;9.80;99.90;;;;;;5032071;28;20033;-75
2021/11/08 10:40:56;;;;;;;27.73;8.40;;;9.60;99.90;;;;;;5031022;28;20152;-75
2021/11/08 10:43:45;;;;;;;26.53;10.83;;;9.40;99.90;;;;;;5030577;28;20040;-75
2021/11/08 10:46:14;;;;;;;23.93;7.77;;;9.10;99.90;;;;;;5032102;28;20049;-75
2021/11/08 10:48:48;;;;;;;32.93;15.30;;;8.80;99.90;;;;;;5012158;28;20467;-75
2021/11/08 10:51:17;;;;;;;16.55;4.75;;;8.70;99.90;;;;;;5016301;28;20688;-75
2021/11/08 10:54:07;;;;;;;18.83;6.00;;;8.50;99.90;;;;;;5016563;28;20038;-75
2021/11/08 10:56:59;;;;;;;20.03;6.57;;;8.40;99.90;;;;;;5016363;28;20046;-75
2021/11/08 10:59:31;;;;;;;24.03;8.87;;;8.30;99.90;;;;;;5011223;28;20026;-79
2021/11/08 11:01:59;;;;;;;15.07;5.50;;;8.20;99.90;;;;;;5011395;28;20827;-79
2021/11/08 11:04:46;;;;;;;15.93;4.77;;;8.10;99.90;;;;;;5010881;28;20034;-79
2021/11/08 11:07:13;;;;;;;18.40;4.93;;;8.00;99.90;;;;;;5011104;28;20037;-79
2021/11/08 11:09:39;;;;;;;14.03;4.47;;;8.00;99.90;;;;;;5009766;28;20021;-79
2021/11/08 11:12:14;;;;;;;15.83;5.17;;;7.90;99.90;;;;;;5010889;28;20029;-80
2021/11/08 11:14:46;;;;;;;18.05;4.25;;;7.70;99.90;;;;;;5014501;28;20018;-76
2021/11/08 11:17:24;;;;;;;15.43;4.70;;;7.60;99.90;;;;;;5014500;28;20026;-75
2021/11/08 11:20:00;;;;;;;15.07;4.37;;;7.50;99.90;;;;;;5014773;28;20033;-79
2021/11/08 11:22:26;;;;;;;13.90;4.17;;;7.50;99.90;;;;;;5013636;28;20028;-77
2021/11/08 11:24:55;;;;;;;11.47;4.13;;;7.60;99.90;;;;;;5015203;28;20025;-75
2021/11/08 11:27:24;;;;;;;14.63;4.13;;;7.60;99.90;;;;;;5016019;28;20030;-75
2021/11/08 11:29:50;;;;;;;20.47;4.37;;;7.60;99.90;;;;;;5016323;28;20034;-75
2021/11/08 11:32:26;;;;;;;18.23;5.27;;;7.60;99.90;;;;;;5016147;28;20420;-75
2021/11/08 11:34:57;;;;;;;19.00;4.40;;;7.60;99.90;;;;;;5015046;28;20026;-75
2021/11/08 11:37:25;;;;;;;16.93;4.43;;;7.70;99.90;;;;;;5016057;28;20050;-75
2021/11/08 11:40:08;;;;;;;16.47;5.13;;;7.70;99.90;;;;;;5016149;28;20050;-75
2021/11/08 11:42:48;;;;;;;13.20;3.73;;;7.80;99.90;;;;;;5016226;28;20467;-75
2021/11/08 11:45:14;;;;;;;15.57;4.43;;;7.80;99.90;;;;;;5016135;28;20064;-75
2021/11/08 11:47:40;;;;;;;14.07;4.17;;;7.80;99.90;;;;;;5015639;28;20414;-75
2021/11/08 11:50:06;;;;;;;19.63;4.37;;;7.80;99.90;;;;;;5015790;28;20040;-75
2021/11/08 11:52:33;;;;;;;13.27;3.50;;;7.70;99.90;;;;;;5015825;28;20074;-75
2021/11/08 11:54:58;;;;;;;17.30;4.67;;;7.70;99.90;;;;;;5015923;28;20022;-75
2021/11/08 11:57:24;;;;;;;19.43;4.90;;;7.60;99.90;;;;;;5015939;28;20030;-75
2021/11/08 11:59:51;;;;;;;16.83;3.87;;;7.60;99.90;;;;;;5015592;28;20026;-75
2021/11/08 12:02:18;;;;;;;12.13;3.77;;;7.50;99.90;;;;;;5015699;28;20029;-77
2021/11/08 12:04:44;;;;;;;14.00;4.13;;;7.50;99.90;;;;;;5013747;28;20034;-79
2021/11/08 12:07:13;;;;;;;18.77;4.63;;;7.50;99.90;;;;;;5022008;28;20029;-79
2021/11/08 12:09:39;;;;;;;17.07;4.90;;;7.50;99.90;;;;;;5033623;28;20156;-75
2021/11/08 12:12:07;;;;;;;11.87;3.77;;;7.50;99.90;;;;;;5033671;28;20032;-75
2021/11/08 12:14:36;;;;;;;20.13;4.33;;;7.50;99.90;;;;;;5033519;28;20076;-75
2021/11/08 12:17:14;;;;;;;13.67;4.17;;;7.50;99.90;;;;;;5033610;28;20126;-75
2021/11/08 12:19:42;;;;;;;16.00;4.67;;;7.50;99.90;;;;;;5033493;28;20091;-75
2021/11/08 12:22:28;;;;;;;15.20;3.73;;;7.60;99.90;;;;;;5023881;28;20040;-79
2021/11/08 12:25:05;;;;;;;14.90;4.37;;;7.60;99.90;;;;;;5017540;28;20125;-75
2021/11/08 12:27:38;;;;;;;18.63;4.37;;;7.70;99.90;;;;;;5031918;28;20044;-79
2021/11/08 12:30:32;;;;;;;30.83;16.30;;;7.70;99.90;;;;;;5029440;28;20025;-79
2021/11/08 12:33:01;;;;;;;22.43;6.50;;;7.80;99.90;;;;;;5027934;28;20456;-79
2021/11/08 12:35:34;;;;;;;28.07;9.30;;;7.90;99.90;;;;;;5028883;28;20036;-78
2021/11/08 12:38:13;;;;;;;63.43;28.77;;;8.20;99.90;;;;;;5028742;28;20026;-78
2021/11/08 12:40:41;;;;;;;22.20;7.30;;;8.30;99.90;;;;;;5032414;28;20049;-75
2021/11/08 12:43:06;;;;;;;18.10;6.03;;;8.30;99.90;;;;;;5033121;28;20029;-75
2021/11/08 12:45:39;;;;;;;21.27;8.07;;;8.30;99.90;;;;;;5032964;28;20037;-75
2021/11/08 12:48:12;;;;;;;12.37;4.10;;;8.30;99.90;;;;;;5031291;28;20099;-79
2021/11/08 12:50:48;;;;;;;17.57;5.20;;;8.40;99.90;;;;;;5027368;28;20033;-79
2021/11/08 12:53:19;;;;;;;;;;;8.40;99.90;;;;;;5029053;28;20032;-78
2021/11/08 12:55:45;;;;;;;12.23;3.60;;;8.40;99.90;;;;;;5028237;28;19916;-79
2021/11/08 12:58:11;;;;;;;17.97;4.70;;;8.50;99.90;;;;;;5028199;28;20898;-79
2021/11/08 13:00:40;;;;;;;13.73;4.10;;;8.60;99.90;;;;;;5028511;28;20053;-79
2021/11/08 13:03:13;;;;;;;10.07;3.00;;;8.70;99.90;;;;;;5028634;28;20032;-79
2021/11/08 13:05:43;;;;;;;12.07;4.47;;;8.70;99.90;;;;;;5028446;28;20041;-75
2021/11/08 13:08:26;;;;;;;17.10;4.47;;;8.80;99.90;;;;;;5028927;28;20037;-75
2021/11/08 13:11:09;;;;;;;11.57;3.30;;;8.90;99.90;;;;;;5028690;28;20108;-75
2021/11/08 13:13:35;;;;;;;11.77;3.10;;;9.00;99.90;;;;;;5028322;28;20032;-75
2021/11/08 13:16:11;;;;;;;16.50;4.13;;;9.10;99.90;;;;;;5028201;28;20037;-76
2021/11/08 13:18:46;;;;;;;15.47;2.90;;;9.00;99.90;;;;;;5028480;28;20036;-75
2021/11/08 13:21:22;;;;;;;14.63;3.43;;;9.00;99.90;;;;;;5028086;28;20042;-75
2021/11/08 13:23:53;;;;;;;23.80;10.33;;;8.90;99.90;;;;;;5028182;28;20132;-76
2021/11/08 13:26:18;;;;;;;17.30;3.93;;;8.90;99.90;;;;;;5026544;28;20463;-75
2021/11/08 13:28:44;;;;;;;11.10;3.13;;;8.80;99.90;;;;;;5028188;28;20037;-75
2021/11/08 13:31:12;;;;;;;16.07;3.70;;;8.70;99.90;;;;;;5028171;28;20029;-75
2021/11/08 13:33:49;;;;;;;8.77;2.87;;;8.60;99.90;;;;;;5027889;28;20024;-76
2021/11/08 13:36:15;;;;;;;15.33;3.47;;;8.60;99.90;;;;;;5027818;28;20021;-75
2021/11/08 13:38:48;;;;;;;11.40;2.70;;;8.60;99.90;;;;;;5027835;28;20057;-75
2021/11/08 13:41:23;;;;;;;13.03;3.83;;;8.50;99.90;;;;;;5027736;28;20022;-75
2021/11/08 13:43:55;;;;;;;10.93;3.95;;;8.50;99.90;;;;;;5029078;28;20022;-74
2021/11/08 13:46:34;;;;;;;11.10;3.47;;;8.50;99.90;;;;;;5031045;28;20394;-74
2021/11/08 13:49:12;;;;;;;13.87;3.67;;;8.50;99.90;;;;;;5031068;28;20098;-74
2021/11/08 13:51:48;;;;;;;11.50;3.63;;;8.60;99.90;;;;;;5030754;28;20380;-74
2021/11/08 13:54:18;;;;;;;13.10;3.23;;;8.50;99.90;;;;;;5030385;28;20049;-74
2021/11/08 13:56:54;;;;;;;15.33;3.73;;;8.70;99.90;;;;;;5030400;28;20022;-74
2021/11/08 13:59:25;;;;;;;13.43;3.97;;;8.60;99.90;;;;;;5030828;28;20375;-74
2021/11/08 14:02:05;;;;;;;13.97;3.67;;;8.50;99.90;;;;;;5030892;28;20026;-74
2021/11/08 14:04:43;;;;;;;11.83;3.43;;;8.40;99.90;;;;;;5029564;28;20037;-74
2021/11/08 14:07:11;;;;;;;15.17;3.53;;;8.40;99.90;;;;;;5029921;28;20035;-74
2021/11/08 14:09:38;;;;;;;10.23;2.83;;;8.40;99.90;;;;;;5030058;28;20648;-75
2021/11/08 14:12:06;;;;;;;9.40;2.60;;;8.40;99.90;;;;;;5031315;28;20052;-74
2021/11/08 14:14:35;;;;;;;13.43;3.37;;;8.30;99.90;;;;;;5031762;28;20033;-74
2021/11/08 14:17:29;;;;;;;10.23;2.57;;;8.30;99.90;;;;;;5031533;28;20022;-74
2021/11/08 14:20:16;;;;;;;9.77;2.30;;;8.20;99.90;;;;;;5027446;28;20053;-76
2021/11/08 14:22:43;;;;;;;8.87;2.60;;;8.20;99.90;;;;;;5029934;28;20033;-76
2021/11/08 14:25:10;;;;;;;11.50;3.57;;;8.20;99.90;;;;;;5030453;28;20037;-75
2021/11/08 14:27:40;;;;;;;8.30;2.97;;;8.10;99.90;;;;;;5029957;28;20026;-75
2021/11/08 14:30:13;;;;;;;12.87;4.50;;;8.20;99.90;;;;;;5031443;28;20726;-75
2021/11/08 14:32:40;;;;;;;11.57;3.87;;;8.00;99.90;;;;;;5029958;28;20370;-75
2021/11/08 14:35:12;;;;;;;8.90;2.23;;;8.00;99.90;;;;;;5031375;28;20018;-75
2021/11/08 14:38:13;;;;;;;14.30;3.77;;;8.00;99.90;;;;;;5032364;28;20435;-75
2021/11/08 14:40:45;;;;;;;7.33;2.57;;;7.90;99.90;;;;;;5032307;28;20092;-74
2021/11/08 14:43:19;;;;;;;11.40;3.53;;;7.90;99.90;;;;;;5032667;28;20490;-74
2021/11/08 14:45:58;;;;;;;10.80;2.20;;;7.80;99.90;;;;;;5032396;28;20442;-74
2021/11/08 14:48:26;;;;;;;8.80;2.27;;;7.70;99.90;;;;;;5032177;28;20091;-74
2021/11/08 14:51:22;;;;;;;17.77;3.30;;;7.70;99.90;;;;;;5022296;28;20026;-75